Time;durP1;ratioP1;P1;durP2;ratioP2;P2;SDS_P1;SDS_P2;PMS_P1;PMS_P2;Temp;Humidity;BMP_temperature;BMP_pressure;BME280_temperature;BME280_humidity;BME280_pressure;Samples;Min_cycle;Max_cycle;Signal;HPM_P1;HPM_P2
2022/09/15 00:00:44;;;;;;;5.68;3.50;;;;;;;;;;5042524;28;20437;-83
2022/09/15 00:03:10;;;;;;;9.38;3.60;;;;;;;;;;5042038;28;20909;-83
2022/09/15 00:05:38;;;;;;;5.50;3.20;;;;;;;;;;5043656;28;20428;-83
2022/09/15 00:08:05;;;;;;;6.80;3.67;;;;;;;;;;5038609;28;20641;-85
2022/09/15 00:10:31;;;;;;;5.82;3.95;;;;;;;;;;5041743;28;20431;-85
2022/09/15 00:12:58;;;;;;;4.25;3.30;;;;;;;;;;5041861;28;20409;-83
2022/09/15 00:15:24;;;;;;;6.22;3.08;;;;;;;;;;5045611;28;20518;-83
2022/09/15 00:17:52;;;;;;;5.50;3.60;;;;;;;;;;5048635;28;20423;-80
2022/09/15 00:20:19;;;;;;;6.30;3.35;;;;;;;;;;5044786;28;20431;-85
2022/09/15 00:22:47;;;;;;;4.10;3.20;;;;;;;;;;5047284;28;20430;-82
2022/09/15 00:25:14;;;;;;;6.68;3.38;;;;;;;;;;5047021;28;20886;-83
2022/09/15 00:27:42;;;;;;;7.25;3.00;;;;;;;;;;5043532;28;20433;-83
2022/09/15 00:30:09;;;;;;;6.80;3.50;;;;;;;;;;5042836;28;20415;-82
2022/09/15 00:32:36;;;;;;;7.50;3.20;;;;;;;;;;5045871;28;20429;-82
2022/09/15 00:35:02;;;;;;;7.05;3.50;;;;;;;;;;5045984;28;20435;-82
2022/09/15 00:37:29;;;;;;;7.55;3.35;;;;;;;;;;5045471;28;20423;-81
2022/09/15 00:39:57;;;;;;;8.32;3.40;;;;;;;;;;5044318;28;20543;-82
2022/09/15 00:42:23;;;;;;;4.60;2.80;;;;;;;;;;5045575;28;21023;-83
2022/09/15 00:44:52;;;;;;;6.82;3.00;;;;;;;;;;5043452;28;20423;-83
2022/09/15 00:47:21;;;;;;;7.45;2.90;;;;;;;;;;5043347;28;20422;-84
2022/09/15 00:49:49;;;;;;;4.45;2.83;;;;;;;;;;5039271;28;20814;-83
2022/09/15 00:52:17;;;;;;;7.60;3.63;;;;;;;;;;5044373;28;20438;-83
2022/09/15 00:54:46;;;;;;;5.43;3.20;;;;;;;;;;5045572;28;20435;-80
2022/09/15 00:57:15;;;;;;;5.13;2.80;;;;;;;;;;5047088;28;20431;-81
2022/09/15 00:59:42;;;;;;;5.93;3.60;;;;;;;;;;5044870;28;20425;-83
2022/09/15 01:02:11;;;;;;;7.95;3.80;;;;;;;;;;5043477;28;20440;-82
2022/09/15 01:04:38;;;;;;;5.50;3.47;;;;;;;;;;5044857;28;20425;-81
2022/09/15 01:07:05;;;;;;;7.37;4.23;;;;;;;;;;5047194;28;20432;-81
2022/09/15 01:09:35;;;;;;;8.63;3.75;;;;;;;;;;5045615;28;20417;-81
2022/09/15 01:12:02;;;;;;;6.80;4.10;;;;;;;;;;5046801;28;20433;-84
2022/09/15 01:14:30;;;;;;;9.70;4.50;;;;;;;;;;5044612;28;20435;-81
2022/09/15 01:17:02;;;;;;;6.70;4.28;;;;;;;;;;5045649;28;20463;-79
2022/09/15 01:19:51;;;;;;;7.05;4.50;;;;;;;;;;5043120;28;20441;-80
2022/09/15 01:22:27;;;;;;;7.10;4.43;;;;;;;;;;5046700;28;20433;-87
2022/09/15 01:25:02;;;;;;;5.30;4.10;;;;;;;;;;5043629;28;20439;-82
2022/09/15 01:27:42;;;;;;;5.15;3.80;;;;;;;;;;5044499;28;20427;-83
2022/09/15 01:30:11;;;;;;;6.57;4.03;;;;;;;;;;5041560;28;20429;-84
2022/09/15 01:35:32;;;;;;;7.78;4.50;;;;;;;;;;5045063;28;20492;-81
2022/09/15 01:38:01;;;;;;;9.00;4.53;;;;;;;;;;5048594;28;20419;-80
2022/09/15 01:40:29;;;;;;;6.18;4.20;;;;;;;;;;5045294;28;20427;-81
2022/09/15 01:42:57;;;;;;;8.38;4.10;;;;;;;;;;5045491;28;20490;-82
2022/09/15 01:45:27;;;;;;;7.55;3.83;;;;;;;;;;5046345;28;20810;-81
2022/09/15 01:47:54;;;;;;;5.32;4.50;;;;;;;;;;5046737;28;20421;-83
2022/09/15 01:50:23;;;;;;;6.55;4.28;;;;;;;;;;5048317;28;20429;-83
2022/09/15 01:52:51;;;;;;;11.48;4.82;;;;;;;;;;5043960;28;20441;-83
2022/09/15 01:55:21;;;;;;;7.82;4.70;;;;;;;;;;5045433;28;20444;-80
2022/09/15 01:57:48;;;;;;;8.30;4.47;;;;;;;;;;5042390;28;20477;-83
2022/09/15 02:00:14;;;;;;;8.03;4.50;;;;;;;;;;5046559;28;20435;-81
2022/09/15 02:02:44;;;;;;;8.07;4.40;;;;;;;;;;5045538;28;20427;-81
2022/09/15 02:05:17;;;;;;;8.95;4.85;;;;;;;;;;5044919;28;20426;-83
2022/09/15 02:07:47;;;;;;;8.70;4.40;;;;;;;;;;5043492;28;20431;-85
2022/09/15 02:10:17;;;;;;;7.53;4.60;;;;;;;;;;5044683;28;20420;-85
2022/09/15 02:12:46;;;;;;;9.07;4.80;;;;;;;;;;5042829;28;20438;-82
2022/09/15 02:15:14;;;;;;;9.60;4.57;;;;;;;;;;5043889;28;20488;-82
2022/09/15 02:17:44;;;;;;;7.78;4.65;;;;;;;;;;5043713;28;20425;-84
2022/09/15 02:20:14;;;;;;;8.32;4.88;;;;;;;;;;5043999;28;20517;-84
2022/09/15 02:22:42;;;;;;;7.80;4.35;;;;;;;;;;5043165;28;20518;-82
2022/09/15 02:25:11;;;;;;;7.65;4.63;;;;;;;;;;5042825;28;20441;-83
2022/09/15 02:27:40;;;;;;;6.93;4.70;;;;;;;;;;5034091;28;20429;-83
2022/09/15 02:30:10;;;;;;;7.15;4.70;;;;;;;;;;5056755;28;20923;-83
2022/09/15 02:32:39;;;;;;;6.07;4.60;;;;;;;;;;5043795;28;20518;-82
2022/09/15 02:35:10;;;;;;;9.05;4.40;;;;;;;;;;5045441;28;20479;-82
2022/09/15 02:37:37;;;;;;;7.10;4.78;;;;;;;;;;5042964;28;20964;-83
2022/09/15 02:40:04;;;;;;;8.20;4.68;;;;;;;;;;5043160;28;20447;-82
2022/09/15 02:42:32;;;;;;;6.78;4.45;;;;;;;;;;5043798;28;20441;-82
2022/09/15 02:44:59;;;;;;;5.20;4.30;;;;;;;;;;5043611;28;20434;-83
2022/09/15 02:47:27;;;;;;;10.48;5.13;;;;;;;;;;5042934;28;20516;-83
2022/09/15 02:49:53;;;;;;;7.45;5.63;;;;;;;;;;5045324;28;20424;-82
2022/09/15 02:52:21;;;;;;;8.95;4.40;;;;;;;;;;5043142;28;20513;-83
2022/09/15 02:54:48;;;;;;;7.20;4.60;;;;;;;;;;5043871;28;20452;-85
2022/09/15 02:57:15;;;;;;;6.20;4.50;;;;;;;;;;5043651;28;20448;-80
2022/09/15 03:02:26;;;;;;;8.57;4.95;;;;;;;;;;5043777;28;20439;-80
2022/09/15 03:04:52;;;;;;;7.73;5.40;;;;;;;;;;5045185;28;20856;-82
2022/09/15 03:07:19;;;;;;;8.38;4.95;;;;;;;;;;5044019;28;20463;-90
2022/09/15 03:09:47;;;;;;;12.52;4.60;;;;;;;;;;5044484;28;20940;-81
2022/09/15 03:12:14;;;;;;;7.40;4.15;;;;;;;;;;5041064;28;20516;-83
2022/09/15 03:14:40;;;;;;;9.57;4.80;;;;;;;;;;5043492;28;20427;-83
2022/09/15 03:17:07;;;;;;;7.47;4.90;;;;;;;;;;5042140;28;20857;-81
2022/09/15 03:19:33;;;;;;;9.27;4.80;;;;;;;;;;5042956;28;20428;-81
2022/09/15 03:22:00;;;;;;;9.57;5.10;;;;;;;;;;5042863;28;20431;-80
2022/09/15 03:24:27;;;;;;;6.47;4.50;;;;;;;;;;5042920;28;20417;-83
2022/09/15 03:26:55;;;;;;;7.97;4.63;;;;;;;;;;5043492;28;20421;-81
2022/09/15 03:29:21;;;;;;;6.35;4.50;;;;;;;;;;5041735;28;20454;-82
2022/09/15 03:31:48;;;;;;;5.63;4.60;;;;;;;;;;5042365;28;20865;-81
2022/09/15 03:34:15;;;;;;;8.48;4.93;;;;;;;;;;5043237;28;20427;-82
2022/09/15 03:36:42;;;;;;;7.70;4.50;;;;;;;;;;5042853;28;20422;-81
2022/09/15 03:39:08;;;;;;;8.20;4.70;;;;;;;;;;5044732;28;20423;-81
2022/09/15 03:41:36;;;;;;;9.13;4.50;;;;;;;;;;5040833;28;20514;-81
2022/09/15 03:44:05;;;;;;;9.25;4.85;;;;;;;;;;5043788;28;20421;-82
2022/09/15 03:46:31;;;;;;;5.45;4.32;;;;;;;;;;5043141;28;20440;-81
2022/09/15 03:48:58;;;;;;;7.60;4.70;;;;;;;;;;5042362;28;20515;-81
2022/09/15 03:51:24;;;;;;;5.85;4.47;;;;;;;;;;5043607;28;20502;-82
2022/09/15 03:53:51;;;;;;;7.90;4.20;;;;;;;;;;5043532;28;20426;-84
2022/09/15 03:56:21;;;;;;;7.57;4.30;;;;;;;;;;5042066;28;20432;-86
2022/09/15 03:58:47;;;;;;;12.73;5.00;;;;;;;;;;5043357;28;20415;-85
2022/09/15 04:01:17;;;;;;;8.30;4.25;;;;;;;;;;5040420;28;20433;-80
2022/09/15 04:03:44;;;;;;;8.98;4.20;;;;;;;;;;5041862;28;21072;-82
2022/09/15 04:06:10;;;;;;;9.23;4.30;;;;;;;;;;5042903;28;20433;-83
2022/09/15 04:08:37;;;;;;;6.10;3.60;;;;;;;;;;5041327;28;20427;-80
2022/09/15 04:11:04;;;;;;;7.28;3.85;;;;;;;;;;5042654;28;20799;-83
2022/09/15 04:13:31;;;;;;;6.27;3.40;;;;;;;;;;5045699;28;20500;-84
2022/09/15 04:15:58;;;;;;;6.55;3.45;;;;;;;;;;5039920;28;20883;-82
2022/09/15 04:18:25;;;;;;;6.18;3.50;;;;;;;;;;5039392;28;20448;-84
2022/09/15 04:20:52;;;;;;;6.45;3.60;;;;;;;;;;5040744;28;20429;-84
2022/09/15 04:23:19;;;;;;;7.90;3.45;;;;;;;;;;5043059;28;20429;-82
2022/09/15 04:25:53;;;;;;;5.60;4.50;;;;;;;;;;5043385;28;20432;-82
2022/09/15 04:28:20;;;;;;;5.82;3.55;;;;;;;;;;5040695;28;20422;-80
2022/09/15 04:30:53;;;;;;;10.00;3.83;;;;;;;;;;5041121;28;20435;-84
2022/09/15 04:33:20;;;;;;;5.00;3.25;;;;;;;;;;5039768;28;20435;-83
2022/09/15 04:35:48;;;;;;;6.90;3.30;;;;;;;;;;5040795;28;20414;-85
2022/09/15 04:38:14;;;;;;;9.77;4.00;;;;;;;;;;5041378;28;20933;-83
2022/09/15 04:40:41;;;;;;;8.80;3.97;;;;;;;;;;5044155;28;20433;-83
2022/09/15 04:43:08;;;;;;;7.80;3.63;;;;;;;;;;5039281;28;20429;-83
2022/09/15 04:45:34;;;;;;;8.95;3.40;;;;;;;;;;5043450;28;20781;-84
2022/09/15 04:48:02;;;;;;;5.47;3.35;;;;;;;;;;5040660;28;20411;-83
2022/09/15 04:50:28;;;;;;;8.15;4.20;;;;;;;;;;5041392;28;20429;-83
2022/09/15 04:52:58;;;;;;;10.70;4.40;;;;;;;;;;5040027;28;20405;-82
2022/09/15 04:55:25;;;;;;;7.60;3.90;;;;;;;;;;5043929;28;20433;-82
2022/09/15 04:57:54;;;;;;;8.05;3.78;;;;;;;;;;5042030;28;20402;-82
2022/09/15 05:00:20;;;;;;;7.57;4.20;;;;;;;;;;5038740;28;20428;-83
2022/09/15 05:02:47;;;;;;;7.55;4.00;;;;;;;;;;5046060;28;21076;-85
2022/09/15 05:05:14;;;;;;;8.32;4.25;;;;;;;;;;5046478;28;20435;-83
2022/09/15 05:07:40;;;;;;;7.97;3.80;;;;;;;;;;5042788;28;20447;-81
2022/09/15 05:10:09;;;;;;;7.88;4.32;;;;;;;;;;5045203;28;20431;-81
2022/09/15 05:12:35;;;;;;;6.75;3.90;;;;;;;;;;5046857;28;20425;-82
2022/09/15 05:15:03;;;;;;;9.77;3.78;;;;;;;;;;5045758;28;20463;-83
2022/09/15 05:17:31;;;;;;;7.38;4.10;;;;;;;;;;5041899;28;20432;-82
2022/09/15 05:19:58;;;;;;;7.35;3.90;;;;;;;;;;5043692;28;20417;-84
2022/09/15 05:22:24;;;;;;;12.75;3.80;;;;;;;;;;5044450;28;20437;-84
2022/09/15 05:24:51;;;;;;;8.43;3.20;;;;;;;;;;5043434;28;20470;-82
2022/09/15 05:27:22;;;;;;;11.40;3.53;;;;;;;;;;5044751;28;20442;-83
2022/09/15 05:29:48;;;;;;;5.78;3.70;;;;;;;;;;5064221;28;20469;-83
2022/09/15 05:32:15;;;;;;;6.43;3.22;;;;;;;;;;5064937;28;20435;-83
2022/09/15 05:34:43;;;;;;;7.78;3.30;;;;;;;;;;5065898;28;20434;-82
2022/09/15 05:37:10;;;;;;;5.05;2.70;;;;;;;;;;5060919;28;20435;-84
2022/09/15 05:39:36;;;;;;;7.47;3.40;;;;;;;;;;5062518;28;20431;-85
2022/09/15 05:42:03;;;;;;;7.03;3.00;;;;;;;;;;5063525;28;20433;-84
2022/09/15 05:44:31;;;;;;;6.85;2.70;;;;;;;;;;5047780;28;20427;-80
2022/09/15 05:46:58;;;;;;;5.00;3.03;;;;;;;;;;5042305;28;20445;-81
2022/09/15 05:49:24;;;;;;;6.10;2.88;;;;;;;;;;5044716;28;20435;-81
2022/09/15 05:51:50;;;;;;;4.90;3.03;;;;;;;;;;5042765;28;20449;-82
2022/09/15 05:54:17;;;;;;;6.85;2.88;;;;;;;;;;5046420;28;20419;-81
2022/09/15 05:56:44;;;;;;;6.00;2.85;;;;;;;;;;5044356;28;20804;-81
2022/09/15 05:59:10;;;;;;;8.95;2.90;;;;;;;;;;5042108;28;20431;-80
2022/09/15 06:01:38;;;;;;;8.68;2.88;;;;;;;;;;5046661;28;20429;-82
2022/09/15 06:04:05;;;;;;;7.27;2.80;;;;;;;;;;5042332;28;20935;-83
2022/09/15 06:06:32;;;;;;;7.45;2.47;;;;;;;;;;5045140;28;20445;-81
2022/09/15 06:09:00;;;;;;;5.25;2.60;;;;;;;;;;5043864;28;20431;-81
2022/09/15 06:11:28;;;;;;;7.95;2.55;;;;;;;;;;5047698;28;20419;-81
2022/09/15 06:13:54;;;;;;;4.80;2.83;;;;;;;;;;5043411;28;20937;-81
2022/09/15 06:16:22;;;;;;;8.67;2.80;;;;;;;;;;5044368;28;20427;-81
2022/09/15 06:18:51;;;;;;;5.50;3.00;;;;;;;;;;5043841;28;20432;-81
2022/09/15 06:21:18;;;;;;;7.00;2.53;;;;;;;;;;5046268;28;20966;-83
2022/09/15 06:23:44;;;;;;;7.33;2.97;;;;;;;;;;5045151;28;20418;-82
2022/09/15 06:26:12;;;;;;;5.93;2.38;;;;;;;;;;5044245;28;20432;-81
2022/09/15 06:28:39;;;;;;;4.65;2.45;;;;;;;;;;5046412;28;20434;-81
2022/09/15 06:31:09;;;;;;;8.50;2.85;;;;;;;;;;5044316;28;20736;-81
2022/09/15 06:33:36;;;;;;;4.82;2.90;;;;;;;;;;5042921;28;20432;-82
2022/09/15 06:36:04;;;;;;;8.07;3.00;;;;;;;;;;5045092;28;20437;-82
2022/09/15 06:38:30;;;;;;;9.20;2.90;;;;;;;;;;5042924;28;20419;-82
2022/09/15 06:40:57;;;;;;;6.50;2.58;;;;;;;;;;5044530;28;20993;-81
2022/09/15 06:43:24;;;;;;;4.83;2.43;;;;;;;;;;5043390;28;20419;-80
2022/09/15 06:45:51;;;;;;;6.90;2.60;;;;;;;;;;5044687;28;20471;-81
2022/09/15 06:48:17;;;;;;;4.53;2.60;;;;;;;;;;5043541;28;20423;-81
2022/09/15 06:50:44;;;;;;;7.20;2.75;;;;;;;;;;5043414;28;20434;-83
2022/09/15 06:53:12;;;;;;;5.90;2.30;;;;;;;;;;5042160;28;20425;-81
2022/09/15 06:55:38;;;;;;;6.27;2.33;;;;;;;;;;5043017;28;20447;-83
2022/09/15 06:58:05;;;;;;;5.45;2.83;;;;;;;;;;5046873;28;20416;-81
2022/09/15 07:00:31;;;;;;;6.50;2.00;;;;;;;;;;5046580;28;20430;-84
2022/09/15 07:02:58;;;;;;;9.35;2.60;;;;;;;;;;5043240;28;20425;-82
2022/09/15 07:05:25;;;;;;;5.93;2.30;;;;;;;;;;5045275;28;20497;-81
2022/09/15 07:07:51;;;;;;;6.70;2.50;;;;;;;;;;5041099;28;20433;-83
2022/09/15 07:10:19;;;;;;;6.53;2.20;;;;;;;;;;5042466;28;20441;-80
2022/09/15 07:12:46;;;;;;;5.07;2.20;;;;;;;;;;5044523;28;20451;-81
2022/09/15 07:15:12;;;;;;;6.13;2.10;;;;;;;;;;5043122;28;20484;-82
2022/09/15 07:17:39;;;;;;;6.57;2.13;;;;;;;;;;5043622;28;20900;-82
2022/09/15 07:20:05;;;;;;;6.32;2.10;;;;;;;;;;5047433;28;20433;-81
2022/09/15 07:22:32;;;;;;;4.90;1.50;;;;;;;;;;5042766;28;20432;-88
2022/09/15 07:24:58;;;;;;;4.80;1.60;;;;;;;;;;5043637;28;20436;-82
2022/09/15 07:27:30;;;;;;;8.55;1.88;;;;;;;;;;5039964;28;20435;-82
2022/09/15 07:29:56;;;;;;;4.35;1.40;;;;;;;;;;5043884;28;20927;-82
2022/09/15 07:32:23;;;;;;;5.28;1.92;;;;;;;;;;5044009;28;20423;-82
2022/09/15 07:34:50;;;;;;;5.35;1.60;;;;;;;;;;5042263;28;20998;-83
2022/09/15 07:37:17;;;;;;;6.65;1.50;;;;;;;;;;5045484;28;20510;-81
2022/09/15 07:39:43;;;;;;;4.13;1.30;;;;;;;;;;5059464;28;20427;-84
2022/09/15 07:42:10;;;;;;;5.70;1.20;;;;;;;;;;5062000;28;20422;-81
2022/09/15 07:44:38;;;;;;;6.50;1.33;;;;;;;;;;5045469;28;20919;-83
2022/09/15 07:47:05;;;;;;;3.63;1.33;;;;;;;;;;5044596;28;20923;-83
2022/09/15 07:49:31;;;;;;;3.65;1.27;;;;;;;;;;5040195;28;20473;-80
2022/09/15 07:51:58;;;;;;;3.97;1.48;;;;;;;;;;5038341;28;20425;-83
2022/09/15 07:54:24;;;;;;;4.65;1.10;;;;;;;;;;5042472;28;20994;-82
2022/09/15 07:56:51;;;;;;;6.13;1.25;;;;;;;;;;5042044;28;20426;-82
2022/09/15 07:59:17;;;;;;;4.60;1.33;;;;;;;;;;5042507;28;20439;-79
2022/09/15 08:01:46;;;;;;;3.97;1.10;;;;;;;;;;5042867;28;20424;-81
2022/09/15 08:04:12;;;;;;;3.80;1.05;;;;;;;;;;5045054;28;20423;-81
2022/09/15 08:06:38;;;;;;;4.60;1.60;;;;;;;;;;5043192;28;20431;-83
2022/09/15 08:09:05;;;;;;;3.75;1.15;;;;;;;;;;5042851;28;20421;-80
2022/09/15 08:11:31;;;;;;;3.67;1.00;;;;;;;;;;5043709;28;20927;-83
2022/09/15 08:14:00;;;;;;;4.50;1.30;;;;;;;;;;5043743;28;20435;-83
2022/09/15 08:16:27;;;;;;;2.90;0.90;;;;;;;;;;5044343;28;20441;-80
2022/09/15 08:18:55;;;;;;;2.83;1.15;;;;;;;;;;5042485;28;20903;-81
2022/09/15 08:21:22;;;;;;;3.00;1.00;;;;;;;;;;5044177;28;20421;-81
2022/09/15 08:23:54;;;;;;;4.00;1.20;;;;;;;;;;5043109;28;20603;-81
2022/09/15 08:26:21;;;;;;;3.40;1.20;;;;;;;;;;5043741;28;20418;-81
2022/09/15 08:28:48;;;;;;;6.03;1.30;;;;;;;;;;5044953;28;20420;-83
2022/09/15 08:31:15;;;;;;;3.70;1.10;;;;;;;;;;5042322;28;20431;-82
2022/09/15 08:33:41;;;;;;;3.40;1.00;;;;;;;;;;5043004;28;20412;-82
2022/09/15 08:36:10;;;;;;;4.38;1.00;;;;;;;;;;5044585;28;20434;-83
2022/09/15 08:38:38;;;;;;;3.00;0.98;;;;;;;;;;5046499;28;20417;-84
2022/09/15 08:41:06;;;;;;;3.85;1.10;;;;;;;;;;5047821;28;20429;-81
2022/09/15 08:43:36;;;;;;;4.63;1.23;;;;;;;;;;5047315;28;20425;-83
2022/09/15 08:46:03;;;;;;;2.35;0.95;;;;;;;;;;5047252;28;20429;-83
2022/09/15 08:48:32;;;;;;;2.10;1.10;;;;;;;;;;5046427;28;20413;-84
2022/09/15 08:51:00;;;;;;;4.90;1.20;;;;;;;;;;5044652;28;20618;-82
2022/09/15 08:53:31;;;;;;;6.10;1.30;;;;;;;;;;5043597;28;20410;-82
2022/09/15 08:55:59;;;;;;;5.20;1.70;;;;;;;;;;5046583;28;20432;-80
2022/09/15 08:58:26;;;;;;;4.03;1.20;;;;;;;;;;5045002;28;20420;-80
2022/09/15 09:00:59;;;;;;;4.50;1.30;;;;;;;;;;5043530;28;20419;-80
2022/09/15 09:03:38;;;;;;;1.98;1.10;;;;;;;;;;5046316;28;20417;-83
2022/09/15 09:06:13;;;;;;;4.75;1.50;;;;;;;;;;5044744;28;20954;-83
2022/09/15 09:08:51;;;;;;;4.38;1.23;;;;;;;;;;5046493;28;20415;-81
2022/09/15 09:11:21;;;;;;;3.97;1.30;;;;;;;;;;5047232;28;20949;-81
2022/09/15 09:13:50;;;;;;;2.88;1.40;;;;;;;;;;5047205;28;20496;-81
2022/09/15 09:16:26;;;;;;;2.10;1.10;;;;;;;;;;5046414;28;20421;-80
2022/09/15 09:19:00;;;;;;;3.40;1.10;;;;;;;;;;5048321;28;20424;-83
2022/09/15 09:21:29;;;;;;;2.80;1.00;;;;;;;;;;5046451;28;20558;-82
2022/09/15 09:24:01;;;;;;;4.73;1.40;;;;;;;;;;5045225;28;20451;-82
2022/09/15 09:26:29;;;;;;;5.20;1.50;;;;;;;;;;5044994;28;20437;-82
2022/09/15 09:29:00;;;;;;;4.60;1.60;;;;;;;;;;5046370;28;20457;-82
2022/09/15 09:31:27;;;;;;;5.28;1.80;;;;;;;;;;5047418;28;20433;-81
2022/09/15 09:33:58;;;;;;;4.05;1.20;;;;;;;;;;5049004;28;20453;-82
2022/09/15 09:36:25;;;;;;;3.43;1.50;;;;;;;;;;5046342;28;20950;-81
2022/09/15 09:38:52;;;;;;;5.37;1.50;;;;;;;;;;5046412;28;20442;-81
2022/09/15 09:41:25;;;;;;;5.70;1.40;;;;;;;;;;5047543;28;20411;-81
2022/09/15 09:43:53;;;;;;;3.67;1.20;;;;;;;;;;5046670;28;20425;-81
2022/09/15 09:46:20;;;;;;;3.33;1.10;;;;;;;;;;5046286;28;20452;-81
2022/09/15 09:48:48;;;;;;;4.18;1.17;;;;;;;;;;5043064;28;20413;-82
2022/09/15 09:51:30;;;;;;;4.45;1.35;;;;;;;;;;5046915;28;20421;-81
2022/09/15 09:53:56;;;;;;;4.05;1.38;;;;;;;;;;5045612;28;20420;-81
2022/09/15 09:56:25;;;;;;;4.55;1.00;;;;;;;;;;5043206;28;20836;-83
2022/09/15 09:58:52;;;;;;;9.90;1.50;;;;;;;;;;5045361;28;20919;-81
2022/09/15 10:01:20;;;;;;;3.78;1.60;;;;;;;;;;5043389;28;20425;-84
2022/09/15 10:03:48;;;;;;;6.03;1.40;;;;;;;;;;5047346;28;20427;-80
2022/09/15 10:06:16;;;;;;;4.90;1.30;;;;;;;;;;5044234;28;20423;-81
2022/09/15 10:08:53;;;;;;;4.53;1.20;;;;;;;;;;5045095;28;20501;-81
2022/09/15 10:11:21;;;;;;;3.65;1.00;;;;;;;;;;5043718;28;20442;-83
2022/09/15 10:13:52;;;;;;;4.03;1.30;;;;;;;;;;5043398;28;20416;-82
2022/09/15 10:16:19;;;;;;;5.72;1.42;;;;;;;;;;5044160;28;20437;-82
2022/09/15 10:18:48;;;;;;;2.25;1.17;;;;;;;;;;5044375;28;20426;-82
2022/09/15 10:21:15;;;;;;;5.00;1.42;;;;;;;;;;5043695;28;20916;-80
2022/09/15 10:23:42;;;;;;;5.25;1.40;;;;;;;;;;5042803;28;20755;-81
2022/09/15 10:26:22;;;;;;;3.93;1.00;;;;;;;;;;5044511;28;20427;-81
2022/09/15 10:29:10;;;;;;;3.70;1.10;;;;;;;;;;5042157;28;20467;-82
2022/09/15 10:31:36;;;;;;;3.35;1.00;;;;;;;;;;5042949;28;20476;-80
2022/09/15 10:34:23;;;;;;;3.67;1.10;;;;;;;;;;5044557;28;20413;-82
2022/09/15 10:36:50;;;;;;;3.85;0.80;;;;;;;;;;5042898;28;20433;-83
2022/09/15 10:39:22;;;;;;;3.50;1.00;;;;;;;;;;5040505;28;20429;-81
2022/09/15 10:41:52;;;;;;;1.77;0.73;;;;;;;;;;5043849;28;20426;-81
2022/09/15 10:44:28;;;;;;;4.20;1.00;;;;;;;;;;5045108;28;20424;-81
2022/09/15 10:46:58;;;;;;;2.22;1.10;;;;;;;;;;5042861;28;20433;-80
2022/09/15 10:49:37;;;;;;;3.30;1.13;;;;;;;;;;5041831;28;20421;-81
2022/09/15 10:52:09;;;;;;;3.50;1.50;;;;;;;;;;5042171;28;20424;-80
2022/09/15 10:54:43;;;;;;;4.53;1.47;;;;;;;;;;5043298;28;20428;-81
2022/09/15 10:57:14;;;;;;;5.47;1.38;;;;;;;;;;5044968;28;20425;-81
2022/09/15 10:59:46;;;;;;;2.93;0.93;;;;;;;;;;5043559;28;20485;-81
2022/09/15 11:02:19;;;;;;;3.70;0.90;;;;;;;;;;5043983;28;20422;-82
2022/09/15 11:05:03;;;;;;;4.10;1.30;;;;;;;;;;5042806;28;20445;-81
2022/09/15 11:07:33;;;;;;;4.00;1.40;;;;;;;;;;5043474;28;20437;-85
2022/09/15 11:10:05;;;;;;;3.30;1.00;;;;;;;;;;5041455;28;20413;-82
2022/09/15 11:12:40;;;;;;;2.90;1.13;;;;;;;;;;5041380;28;20446;-81
2022/09/15 11:15:24;;;;;;;2.10;1.00;;;;;;;;;;5042595;28;20493;-83
2022/09/15 11:18:00;;;;;;;2.97;1.00;;;;;;;;;;5041418;28;20419;-85
2022/09/15 11:20:36;;;;;;;2.28;1.00;;;;;;;;;;5040917;28;20428;-83
2022/09/15 11:23:05;;;;;;;3.13;1.10;;;;;;;;;;5041054;28;20481;-80
2022/09/15 11:25:34;;;;;;;3.72;1.20;;;;;;;;;;5044485;28;20425;-82
2022/09/15 11:28:03;;;;;;;3.25;0.90;;;;;;;;;;5042262;28;20451;-83
2022/09/15 11:30:32;;;;;;;1.80;1.20;;;;;;;;;;5044372;28;20519;-84
2022/09/15 11:33:01;;;;;;;4.60;1.80;;;;;;;;;;5041680;28;20795;-84
2022/09/15 11:35:40;;;;;;;4.00;1.40;;;;;;;;;;5041479;28;20432;-85
2022/09/15 11:38:13;;;;;;;3.75;1.13;;;;;;;;;;5042550;28;20419;-81
2022/09/15 11:40:41;;;;;;;4.28;1.38;;;;;;;;;;5042313;28;20437;-82
2022/09/15 11:43:13;;;;;;;6.20;1.30;;;;;;;;;;5037164;28;20483;-82
2022/09/15 11:45:44;;;;;;;3.57;0.80;;;;;;;;;;5043137;28;20431;-83
2022/09/15 11:48:13;;;;;;;4.15;1.30;;;;;;;;;;5044120;28;20410;-81
2022/09/15 11:50:42;;;;;;;2.00;1.10;;;;;;;;;;5041047;28;20424;-82
2022/09/15 11:53:11;;;;;;;4.38;1.10;;;;;;;;;;5043498;28;20419;-82
2022/09/15 11:55:39;;;;;;;4.90;1.13;;;;;;;;;;5042888;28;20435;-81
2022/09/15 11:58:12;;;;;;;3.65;1.23;;;;;;;;;;5042486;28;20412;-83
2022/09/15 12:00:42;;;;;;;3.77;1.20;;;;;;;;;;5043568;28;20425;-82
2022/09/15 12:03:17;;;;;;;4.30;1.20;;;;;;;;;;5041648;28;20437;-82
2022/09/15 12:05:46;;;;;;;1.33;0.88;;;;;;;;;;5043441;28;20431;-81
2022/09/15 12:08:19;;;;;;;3.22;1.10;;;;;;;;;;5040459;28;20409;-81
2022/09/15 12:10:46;;;;;;;2.00;1.00;;;;;;;;;;5044381;28;20433;-82
2022/09/15 12:13:15;;;;;;;2.90;0.98;;;;;;;;;;5045836;28;20413;-81
2022/09/15 12:15:44;;;;;;;3.15;1.10;;;;;;;;;;5049133;28;20432;-81
2022/09/15 12:18:18;;;;;;;1.42;1.00;;;;;;;;;;5048086;28;20422;-82
2022/09/15 12:20:49;;;;;;;2.70;0.90;;;;;;;;;;5045925;28;20516;-81
2022/09/15 12:23:18;;;;;;;1.50;0.70;;;;;;;;;;5046065;28;20414;-80
2022/09/15 12:25:50;;;;;;;2.58;1.08;;;;;;;;;;5047082;28;20421;-81
2022/09/15 12:28:35;;;;;;;3.47;1.27;;;;;;;;;;5043571;28;20419;-84
2022/09/15 12:31:20;;;;;;;3.00;0.90;;;;;;;;;;5034042;28;20417;-82
2022/09/15 12:33:53;;;;;;;3.75;1.10;;;;;;;;;;5045685;28;20418;-82
2022/09/15 12:36:34;;;;;;;4.03;1.30;;;;;;;;;;5047898;28;20429;-81
2022/09/15 12:39:02;;;;;;;3.08;1.02;;;;;;;;;;5044058;28;20413;-81
2022/09/15 12:41:29;;;;;;;1.60;1.00;;;;;;;;;;5046263;28;20441;-81
2022/09/15 12:43:56;;;;;;;2.65;1.15;;;;;;;;;;5046053;28;20471;-81
2022/09/15 12:46:24;;;;;;;3.10;1.17;;;;;;;;;;5047893;28;20438;-81
2022/09/15 12:48:55;;;;;;;3.50;1.00;;;;;;;;;;5046038;28;20437;-81
2022/09/15 12:51:23;;;;;;;3.10;1.10;;;;;;;;;;5049719;28;20475;-81
2022/09/15 12:53:52;;;;;;;3.13;1.10;;;;;;;;;;5045621;28;20808;-83
2022/09/15 12:56:22;;;;;;;3.15;1.20;;;;;;;;;;5042424;28;20439;-83
2022/09/15 12:58:49;;;;;;;3.80;1.20;;;;;;;;;;5045995;28;20420;-80
2022/09/15 13:01:32;;;;;;;2.80;1.30;;;;;;;;;;5045718;28;20442;-81
2022/09/15 13:04:13;;;;;;;2.40;0.90;;;;;;;;;;5047480;28;20415;-80
2022/09/15 13:06:40;;;;;;;5.13;1.48;;;;;;;;;;5045855;28;20773;-80
2022/09/15 13:09:25;;;;;;;4.55;1.45;;;;;;;;;;5046821;28;20856;-81
2022/09/15 13:11:55;;;;;;;3.42;1.20;;;;;;;;;;5047812;28;20478;-81
2022/09/15 13:14:24;;;;;;;3.95;1.02;;;;;;;;;;5044231;28;20439;-83
2022/09/15 13:16:53;;;;;;;5.20;1.40;;;;;;;;;;5046084;28;20427;-82
2022/09/15 13:19:23;;;;;;;3.47;1.60;;;;;;;;;;5046064;28;20418;-82
2022/09/15 13:21:53;;;;;;;4.17;1.10;;;;;;;;;;5044066;28;20425;-80
2022/09/15 13:24:22;;;;;;;4.60;1.30;;;;;;;;;;5043287;28;20427;-82
2022/09/15 13:26:51;;;;;;;5.05;1.55;;;;;;;;;;5043264;28;20442;-83
2022/09/15 13:29:17;;;;;;;4.38;1.40;;;;;;;;;;5044309;28;20439;-80
2022/09/15 13:31:49;;;;;;;3.95;1.30;;;;;;;;;;5044469;28;20436;-81
2022/09/15 13:34:31;;;;;;;3.40;1.25;;;;;;;;;;5043551;28;20423;-85
2022/09/15 13:37:07;;;;;;;3.13;1.25;;;;;;;;;;5042317;28;20455;-83
2022/09/15 13:39:45;;;;;;;3.78;1.25;;;;;;;;;;5041849;28;20417;-83
2022/09/15 13:42:19;;;;;;;4.57;1.50;;;;;;;;;;5042237;28;20958;-82
2022/09/15 13:45:00;;;;;;;2.60;1.38;;;;;;;;;;5041997;28;20785;-83
2022/09/15 13:47:34;;;;;;;4.72;1.50;;;;;;;;;;5041410;28;20982;-83
2022/09/15 13:50:06;;;;;;;3.80;1.40;;;;;;;;;;5040775;28;20411;-84
2022/09/15 13:52:50;;;;;;;6.47;1.60;;;;;;;;;;5041080;28;20795;-86
2022/09/15 13:55:20;;;;;;;6.65;1.40;;;;;;;;;;5009621;28;20523;-81
2022/09/15 13:57:48;;;;;;;3.00;1.30;;;;;;;;;;5042287;28;20409;-81
2022/09/15 14:00:16;;;;;;;4.53;1.40;;;;;;;;;;5044791;28;20835;-82
2022/09/15 14:02:43;;;;;;;3.77;1.50;;;;;;;;;;4974616;28;1933480;-84
2022/09/15 14:05:10;;;;;;;4.00;1.73;;;;;;;;;;5043440;28;20431;-82
2022/09/15 14:07:37;;;;;;;4.60;1.65;;;;;;;;;;5043420;28;20452;-82
2022/09/15 14:10:04;;;;;;;3.55;1.88;;;;;;;;;;5041711;28;20423;-82
2022/09/15 14:12:32;;;;;;;2.60;1.40;;;;;;;;;;5043026;28;20425;-82
2022/09/15 14:15:00;;;;;;;4.90;1.73;;;;;;;;;;5044355;28;20411;-82
2022/09/15 14:17:28;;;;;;;4.03;1.67;;;;;;;;;;5042141;28;20441;-82
2022/09/15 14:19:56;;;;;;;3.23;1.63;;;;;;;;;;5044773;28;20427;-81
2022/09/15 14:22:26;;;;;;;4.63;1.75;;;;;;;;;;5041418;28;20427;-81
2022/09/15 14:24:54;;;;;;;4.68;1.60;;;;;;;;;;5044189;28;20429;-81
2022/09/15 14:27:23;;;;;;;3.90;1.70;;;;;;;;;;5046040;28;20435;-83
2022/09/15 14:29:54;;;;;;;4.87;1.97;;;;;;;;;;5043029;28;20435;-82
2022/09/15 14:32:21;;;;;;;4.47;1.30;;;;;;;;;;5043792;28;20423;-82
2022/09/15 14:34:48;;;;;;;3.45;1.85;;;;;;;;;;5042756;28;20434;-82
2022/09/15 14:37:18;;;;;;;5.55;1.92;;;;;;;;;;5044319;28;20978;-82
2022/09/15 14:39:49;;;;;;;5.20;2.30;;;;;;;;;;5044303;28;20523;-82
2022/09/15 14:42:18;;;;;;;6.22;2.28;;;;;;;;;;5044071;28;20432;-84
2022/09/15 14:44:45;;;;;;;4.50;2.00;;;;;;;;;;5041488;28;20425;-81
2022/09/15 14:47:15;;;;;;;5.22;2.28;;;;;;;;;;5041839;28;20427;-83
2022/09/15 14:49:42;;;;;;;3.93;1.80;;;;;;;;;;5042437;28;20430;-84
2022/09/15 14:52:18;;;;;;;4.25;1.90;;;;;;;;;;5043471;28;20429;-82
2022/09/15 14:54:45;;;;;;;4.13;1.80;;;;;;;;;;5044319;28;20426;-83
2022/09/15 14:57:20;;;;;;;4.70;1.60;;;;;;;;;;5043544;28;20938;-82
2022/09/15 14:59:49;;;;;;;5.47;1.50;;;;;;;;;;5042490;28;20437;-81